sensor_id;sensor_type;location;lat;lon;timestamp;P1;durP1;ratioP1;P2;durP2;ratioP2
45114;SDS011;30877;43.706;10.780;2023-03-12T00:01:15;23.92;;;9.00;;
45114;SDS011;30877;43.706;10.780;2023-03-12T00:03:44;20.60;;;9.13;;
45114;SDS011;30877;43.706;10.780;2023-03-12T00:06:13;26.42;;;9.85;;
45114;SDS011;30877;43.706;10.780;2023-03-12T00:08:42;23.10;;;8.88;;
45114;SDS011;30877;43.706;10.780;2023-03-12T00:11:11;21.45;;;9.23;;
45114;SDS011;30877;43.706;10.780;2023-03-12T00:13:41;22.67;;;8.50;;
45114;SDS011;30877;43.706;10.780;2023-03-12T00:16:11;19.02;;;8.10;;
45114;SDS011;30877;43.706;10.780;2023-03-12T00:18:42;25.20;;;8.95;;
45114;SDS011;30877;43.706;10.780;2023-03-12T00:21:13;24.40;;;8.68;;
45114;SDS011;30877;43.706;10.780;2023-03-12T00:23:41;19.48;;;7.35;;
45114;SDS011;30877;43.706;10.780;2023-03-12T00:26:17;19.50;;;6.90;;
45114;SDS011;30877;43.706;10.780;2023-03-12T00:28:46;17.58;;;7.60;;
45114;SDS011;30877;43.706;10.780;2023-03-12T00:31:31;19.08;;;6.97;;
45114;SDS011;30877;43.706;10.780;2023-03-12T00:34:01;17.10;;;6.57;;
45114;SDS011;30877;43.706;10.780;2023-03-12T00:36:30;19.15;;;6.72;;
45114;SDS011;30877;43.706;10.780;2023-03-12T00:38:59;18.27;;;7.13;;
45114;SDS011;30877;43.706;10.780;2023-03-12T00:41:27;22.10;;;8.40;;
45114;SDS011;30877;43.706;10.780;2023-03-12T00:43:56;20.85;;;6.95;;
45114;SDS011;30877;43.706;10.780;2023-03-12T00:46:24;22.77;;;7.60;;
45114;SDS011;30877;43.706;10.780;2023-03-12T00:48:52;21.15;;;6.70;;
45114;SDS011;30877;43.706;10.780;2023-03-12T00:51:22;21.65;;;7.32;;
45114;SDS011;30877;43.706;10.780;2023-03-12T00:53:50;17.75;;;6.68;;
45114;SDS011;30877;43.706;10.780;2023-03-12T00:56:18;23.05;;;7.50;;
45114;SDS011;30877;43.706;10.780;2023-03-12T00:58:46;17.52;;;6.85;;
45114;SDS011;30877;43.706;10.780;2023-03-12T01:01:14;18.30;;;6.82;;
45114;SDS011;30877;43.706;10.780;2023-03-12T01:03:43;20.23;;;6.97;;
45114;SDS011;30877;43.706;10.780;2023-03-12T01:06:13;19.48;;;7.10;;
45114;SDS011;30877;43.706;10.780;2023-03-12T01:08:43;20.15;;;8.10;;
45114;SDS011;30877;43.706;10.780;2023-03-12T01:11:12;18.90;;;7.22;;
45114;SDS011;30877;43.706;10.780;2023-03-12T01:13:41;19.67;;;8.35;;
45114;SDS011;30877;43.706;10.780;2023-03-12T01:16:09;23.98;;;9.25;;
45114;SDS011;30877;43.706;10.780;2023-03-12T01:18:37;19.27;;;8.00;;
45114;SDS011;30877;43.706;10.780;2023-03-12T01:21:19;19.20;;;8.02;;
45114;SDS011;30877;43.706;10.780;2023-03-12T01:23:48;16.17;;;7.55;;
45114;SDS011;30877;43.706;10.780;2023-03-12T01:26:17;18.95;;;8.60;;
45114;SDS011;30877;43.706;10.780;2023-03-12T01:28:45;17.98;;;8.05;;
45114;SDS011;30877;43.706;10.780;2023-03-12T01:31:14;16.88;;;7.20;;
45114;SDS011;30877;43.706;10.780;2023-03-12T01:33:47;21.85;;;7.03;;
45114;SDS011;30877;43.706;10.780;2023-03-12T01:36:17;18.73;;;7.20;;
45114;SDS011;30877;43.706;10.780;2023-03-12T01:38:47;17.15;;;7.30;;
45114;SDS011;30877;43.706;10.780;2023-03-12T01:41:18;23.23;;;7.85;;
45114;SDS011;30877;43.706;10.780;2023-03-12T01:43:47;19.60;;;7.47;;
45114;SDS011;30877;43.706;10.780;2023-03-12T01:46:21;20.92;;;6.63;;
45114;SDS011;30877;43.706;10.780;2023-03-12T01:48:53;17.33;;;6.38;;
45114;SDS011;30877;43.706;10.780;2023-03-12T01:51:26;21.48;;;7.18;;
45114;SDS011;30877;43.706;10.780;2023-03-12T01:54:12;19.60;;;6.75;;
45114;SDS011;30877;43.706;10.780;2023-03-12T01:56:50;17.65;;;7.70;;
45114;SDS011;30877;43.706;10.780;2023-03-12T01:59:22;20.50;;;6.97;;
45114;SDS011;30877;43.706;10.780;2023-03-12T02:01:55;19.20;;;6.40;;
45114;SDS011;30877;43.706;10.780;2023-03-12T02:04:25;19.63;;;6.88;;
45114;SDS011;30877;43.706;10.780;2023-03-12T02:06:56;14.63;;;6.38;;
45114;SDS011;30877;43.706;10.780;2023-03-12T02:09:30;16.33;;;6.28;;
45114;SDS011;30877;43.706;10.780;2023-03-12T02:12:00;18.23;;;6.22;;
45114;SDS011;30877;43.706;10.780;2023-03-12T02:14:28;20.40;;;6.05;;
45114;SDS011;30877;43.706;10.780;2023-03-12T02:16:57;14.10;;;5.63;;
45114;SDS011;30877;43.706;10.780;2023-03-12T02:19:27;20.05;;;6.13;;
45114;SDS011;30877;43.706;10.780;2023-03-12T02:24:34;15.77;;;5.63;;
45114;SDS011;30877;43.706;10.780;2023-03-12T02:27:08;15.73;;;5.95;;
45114;SDS011;30877;43.706;10.780;2023-03-12T02:29:38;14.68;;;5.15;;
45114;SDS011;30877;43.706;10.780;2023-03-12T02:32:12;22.15;;;6.43;;
45114;SDS011;30877;43.706;10.780;2023-03-12T02:34:45;18.13;;;5.80;;
45114;SDS011;30877;43.706;10.780;2023-03-12T02:37:14;13.50;;;5.60;;
45114;SDS011;30877;43.706;10.780;2023-03-12T02:39:42;17.60;;;5.35;;
45114;SDS011;30877;43.706;10.780;2023-03-12T02:42:17;16.27;;;5.40;;
45114;SDS011;30877;43.706;10.780;2023-03-12T02:44:46;19.00;;;5.75;;
45114;SDS011;30877;43.706;10.780;2023-03-12T02:47:15;14.13;;;4.93;;
45114;SDS011;30877;43.706;10.780;2023-03-12T02:49:43;12.82;;;4.75;;
45114;SDS011;30877;43.706;10.780;2023-03-12T02:52:12;15.90;;;6.28;;
45114;SDS011;30877;43.706;10.780;2023-03-12T02:54:41;15.88;;;5.55;;
45114;SDS011;30877;43.706;10.780;2023-03-12T02:57:10;17.02;;;5.72;;
45114;SDS011;30877;43.706;10.780;2023-03-12T02:59:39;16.08;;;6.10;;
45114;SDS011;30877;43.706;10.780;2023-03-12T03:02:09;13.40;;;5.75;;
45114;SDS011;30877;43.706;10.780;2023-03-12T03:04:38;14.50;;;5.65;;
45114;SDS011;30877;43.706;10.780;2023-03-12T03:07:06;15.57;;;5.50;;
45114;SDS011;30877;43.706;10.780;2023-03-12T03:09:34;18.85;;;6.22;;
45114;SDS011;30877;43.706;10.780;2023-03-12T03:12:03;18.40;;;6.50;;
45114;SDS011;30877;43.706;10.780;2023-03-12T03:14:33;15.52;;;5.55;;
45114;SDS011;30877;43.706;10.780;2023-03-12T03:17:03;17.20;;;6.25;;
45114;SDS011;30877;43.706;10.780;2023-03-12T03:19:31;13.75;;;5.60;;
45114;SDS011;30877;43.706;10.780;2023-03-12T03:21:59;16.75;;;5.35;;
45114;SDS011;30877;43.706;10.780;2023-03-12T03:24:28;13.75;;;5.32;;
45114;SDS011;30877;43.706;10.780;2023-03-12T03:26:57;13.88;;;5.45;;
45114;SDS011;30877;43.706;10.780;2023-03-12T03:29:28;13.63;;;5.25;;
45114;SDS011;30877;43.706;10.780;2023-03-12T03:31:57;17.05;;;5.35;;
45114;SDS011;30877;43.706;10.780;2023-03-12T03:34:27;13.73;;;5.22;;
45114;SDS011;30877;43.706;10.780;2023-03-12T03:36:55;14.68;;;5.40;;
45114;SDS011;30877;43.706;10.780;2023-03-12T03:39:23;16.80;;;5.55;;
45114;SDS011;30877;43.706;10.780;2023-03-12T03:41:51;16.80;;;5.93;;
45114;SDS011;30877;43.706;10.780;2023-03-12T03:44:23;18.50;;;5.53;;
45114;SDS011;30877;43.706;10.780;2023-03-12T03:46:52;17.17;;;5.30;;
45114;SDS011;30877;43.706;10.780;2023-03-12T03:49:22;17.15;;;6.38;;
45114;SDS011;30877;43.706;10.780;2023-03-12T03:51:51;16.85;;;5.72;;
45114;SDS011;30877;43.706;10.780;2023-03-12T03:54:26;16.80;;;5.88;;
45114;SDS011;30877;43.706;10.780;2023-03-12T03:56:58;16.83;;;5.60;;
45114;SDS011;30877;43.706;10.780;2023-03-12T03:59:27;14.98;;;5.57;;
45114;SDS011;30877;43.706;10.780;2023-03-12T04:01:55;16.73;;;5.18;;
45114;SDS011;30877;43.706;10.780;2023-03-12T04:04:24;14.15;;;4.25;;
45114;SDS011;30877;43.706;10.780;2023-03-12T04:06:54;14.35;;;4.85;;
45114;SDS011;30877;43.706;10.780;2023-03-12T04:09:22;16.55;;;4.95;;
45114;SDS011;30877;43.706;10.780;2023-03-12T04:11:50;12.82;;;4.38;;
45114;SDS011;30877;43.706;10.780;2023-03-12T04:14:18;13.30;;;4.45;;
45114;SDS011;30877;43.706;10.780;2023-03-12T04:16:46;17.40;;;4.53;;
45114;SDS011;30877;43.706;10.780;2023-03-12T04:19:14;16.65;;;5.00;;
45114;SDS011;30877;43.706;10.780;2023-03-12T04:21:42;16.58;;;4.30;;
45114;SDS011;30877;43.706;10.780;2023-03-12T04:24:25;13.30;;;4.25;;
45114;SDS011;30877;43.706;10.780;2023-03-12T04:26:53;10.57;;;4.53;;
45114;SDS011;30877;43.706;10.780;2023-03-12T04:29:23;11.13;;;4.22;;
45114;SDS011;30877;43.706;10.780;2023-03-12T04:31:52;15.00;;;4.18;;
45114;SDS011;30877;43.706;10.780;2023-03-12T04:34:20;14.95;;;4.10;;
45114;SDS011;30877;43.706;10.780;2023-03-12T04:36:51;11.43;;;4.18;;
45114;SDS011;30877;43.706;10.780;2023-03-12T04:39:20;10.13;;;3.75;;
45114;SDS011;30877;43.706;10.780;2023-03-12T04:41:52;12.77;;;4.15;;
45114;SDS011;30877;43.706;10.780;2023-03-12T04:44:20;12.35;;;4.40;;
45114;SDS011;30877;43.706;10.780;2023-03-12T04:46:49;12.27;;;4.30;;
45114;SDS011;30877;43.706;10.780;2023-03-12T04:49:20;18.80;;;4.10;;
45114;SDS011;30877;43.706;10.780;2023-03-12T04:51:49;16.55;;;3.88;;
45114;SDS011;30877;43.706;10.780;2023-03-12T04:54:19;12.63;;;3.65;;
45114;SDS011;30877;43.706;10.780;2023-03-12T04:56:47;11.25;;;3.58;;
45114;SDS011;30877;43.706;10.780;2023-03-12T04:59:17;12.15;;;4.07;;
45114;SDS011;30877;43.706;10.780;2023-03-12T05:01:45;15.73;;;4.93;;
45114;SDS011;30877;43.706;10.780;2023-03-12T05:04:18;14.10;;;3.80;;
45114;SDS011;30877;43.706;10.780;2023-03-12T05:06:48;13.40;;;4.07;;
45114;SDS011;30877;43.706;10.780;2023-03-12T05:09:15;9.40;;;3.55;;
45114;SDS011;30877;43.706;10.780;2023-03-12T05:11:43;13.63;;;4.32;;
45114;SDS011;30877;43.706;10.780;2023-03-12T05:14:14;11.02;;;3.00;;
45114;SDS011;30877;43.706;10.780;2023-03-12T05:16:45;11.68;;;3.65;;
45114;SDS011;30877;43.706;10.780;2023-03-12T05:19:14;14.52;;;3.90;;
45114;SDS011;30877;43.706;10.780;2023-03-12T05:21:41;8.10;;;3.25;;
45114;SDS011;30877;43.706;10.780;2023-03-12T05:24:10;12.25;;;3.83;;
45114;SDS011;30877;43.706;10.780;2023-03-12T05:26:38;8.77;;;2.58;;
45114;SDS011;30877;43.706;10.780;2023-03-12T05:29:17;10.02;;;2.97;;
45114;SDS011;30877;43.706;10.780;2023-03-12T05:31:45;8.65;;;2.92;;
45114;SDS011;30877;43.706;10.780;2023-03-12T05:34:13;8.65;;;2.88;;
45114;SDS011;30877;43.706;10.780;2023-03-12T05:36:43;16.60;;;6.25;;
45114;SDS011;30877;43.706;10.780;2023-03-12T05:39:15;19.48;;;9.70;;
45114;SDS011;30877;43.706;10.780;2023-03-12T05:41:43;17.63;;;9.73;;
45114;SDS011;30877;43.706;10.780;2023-03-12T05:44:17;13.80;;;5.30;;
45114;SDS011;30877;43.706;10.780;2023-03-12T05:46:49;13.07;;;4.60;;
45114;SDS011;30877;43.706;10.780;2023-03-12T05:49:18;13.65;;;4.18;;
45114;SDS011;30877;43.706;10.780;2023-03-12T05:51:46;10.23;;;3.97;;
45114;SDS011;30877;43.706;10.780;2023-03-12T05:54:15;12.18;;;3.58;;
45114;SDS011;30877;43.706;10.780;2023-03-12T05:56:46;11.40;;;3.85;;
45114;SDS011;30877;43.706;10.780;2023-03-12T05:59:14;9.93;;;3.50;;
45114;SDS011;30877;43.706;10.780;2023-03-12T06:01:44;12.55;;;3.70;;
45114;SDS011;30877;43.706;10.780;2023-03-12T06:04:14;11.15;;;3.60;;
45114;SDS011;30877;43.706;10.780;2023-03-12T06:06:44;11.45;;;3.75;;
45114;SDS011;30877;43.706;10.780;2023-03-12T06:09:14;11.75;;;3.08;;
45114;SDS011;30877;43.706;10.780;2023-03-12T06:11:43;11.30;;;2.90;;
45114;SDS011;30877;43.706;10.780;2023-03-12T06:14:12;15.35;;;3.58;;
45114;SDS011;30877;43.706;10.780;2023-03-12T06:16:42;13.25;;;4.15;;
45114;SDS011;30877;43.706;10.780;2023-03-12T06:19:10;9.30;;;2.80;;
45114;SDS011;30877;43.706;10.780;2023-03-12T06:21:41;8.55;;;3.17;;
45114;SDS011;30877;43.706;10.780;2023-03-12T06:24:11;10.73;;;3.38;;
45114;SDS011;30877;43.706;10.780;2023-03-12T06:26:44;9.88;;;3.28;;
45114;SDS011;30877;43.706;10.780;2023-03-12T06:29:12;9.70;;;3.67;;
45114;SDS011;30877;43.706;10.780;2023-03-12T06:31:42;8.52;;;3.05;;
45114;SDS011;30877;43.706;10.780;2023-03-12T06:34:10;9.65;;;3.17;;
45114;SDS011;30877;43.706;10.780;2023-03-12T06:36:38;10.85;;;3.05;;
45114;SDS011;30877;43.706;10.780;2023-03-12T06:39:07;9.55;;;2.72;;
45114;SDS011;30877;43.706;10.780;2023-03-12T06:41:36;8.68;;;2.92;;
45114;SDS011;30877;43.706;10.780;2023-03-12T06:44:04;8.57;;;3.03;;
45114;SDS011;30877;43.706;10.780;2023-03-12T06:46:33;6.88;;;2.67;;
45114;SDS011;30877;43.706;10.780;2023-03-12T06:49:02;9.43;;;2.95;;
45114;SDS011;30877;43.706;10.780;2023-03-12T06:51:30;8.68;;;3.00;;
45114;SDS011;30877;43.706;10.780;2023-03-12T06:53:58;8.68;;;2.80;;
45114;SDS011;30877;43.706;10.780;2023-03-12T06:56:29;5.22;;;2.50;;
45114;SDS011;30877;43.706;10.780;2023-03-12T06:58:58;9.77;;;3.30;;
45114;SDS011;30877;43.706;10.780;2023-03-12T07:01:26;7.45;;;3.25;;
45114;SDS011;30877;43.706;10.780;2023-03-12T07:03:54;7.20;;;2.60;;
45114;SDS011;30877;43.706;10.780;2023-03-12T07:06:23;5.05;;;2.28;;
45114;SDS011;30877;43.706;10.780;2023-03-12T07:08:51;5.90;;;2.30;;
45114;SDS011;30877;43.706;10.780;2023-03-12T07:11:19;5.63;;;2.72;;
45114;SDS011;30877;43.706;10.780;2023-03-12T07:13:47;5.53;;;2.72;;
45114;SDS011;30877;43.706;10.780;2023-03-12T07:16:15;4.72;;;2.60;;
45114;SDS011;30877;43.706;10.780;2023-03-12T07:18:43;5.60;;;2.92;;
45114;SDS011;30877;43.706;10.780;2023-03-12T07:21:11;5.47;;;2.85;;
45114;SDS011;30877;43.706;10.780;2023-03-12T07:23:44;4.72;;;2.92;;
45114;SDS011;30877;43.706;10.780;2023-03-12T07:26:11;4.82;;;2.80;;
45114;SDS011;30877;43.706;10.780;2023-03-12T07:28:39;4.68;;;2.50;;
45114;SDS011;30877;43.706;10.780;2023-03-12T07:31:07;5.28;;;2.88;;
45114;SDS011;30877;43.706;10.780;2023-03-12T07:33:35;6.97;;;3.10;;
45114;SDS011;30877;43.706;10.780;2023-03-12T07:36:04;6.85;;;3.13;;
45114;SDS011;30877;43.706;10.780;2023-03-12T07:38:33;8.13;;;2.75;;
45114;SDS011;30877;43.706;10.780;2023-03-12T07:41:03;5.30;;;2.30;;
45114;SDS011;30877;43.706;10.780;2023-03-12T07:43:31;9.90;;;3.05;;
45114;SDS011;30877;43.706;10.780;2023-03-12T07:45:58;4.20;;;2.85;;
45114;SDS011;30877;43.706;10.780;2023-03-12T07:48:26;6.15;;;2.95;;
45114;SDS011;30877;43.706;10.780;2023-03-12T07:50:54;4.45;;;2.47;;
45114;SDS011;30877;43.706;10.780;2023-03-12T07:53:22;4.10;;;2.38;;
45114;SDS011;30877;43.706;10.780;2023-03-12T07:55:50;4.07;;;2.78;;
45114;SDS011;30877;43.706;10.780;2023-03-12T07:58:22;7.55;;;3.05;;
45114;SDS011;30877;43.706;10.780;2023-03-12T08:00:50;8.32;;;3.42;;
45114;SDS011;30877;43.706;10.780;2023-03-12T08:03:20;8.02;;;3.40;;
45114;SDS011;30877;43.706;10.780;2023-03-12T08:05:56;7.25;;;3.78;;
45114;SDS011;30877;43.706;10.780;2023-03-12T08:08:25;8.52;;;3.28;;
45114;SDS011;30877;43.706;10.780;2023-03-12T08:10:54;9.55;;;4.13;;
45114;SDS011;30877;43.706;10.780;2023-03-12T08:13:25;10.07;;;4.68;;
45114;SDS011;30877;43.706;10.780;2023-03-12T08:15:54;12.43;;;5.75;;
45114;SDS011;30877;43.706;10.780;2023-03-12T08:18:22;8.77;;;5.20;;
45114;SDS011;30877;43.706;10.780;2023-03-12T08:20:51;10.45;;;5.65;;
45114;SDS011;30877;43.706;10.780;2023-03-12T08:23:19;10.07;;;6.07;;
45114;SDS011;30877;43.706;10.780;2023-03-12T08:25:48;9.35;;;5.60;;
45114;SDS011;30877;43.706;10.780;2023-03-12T08:28:16;11.50;;;6.82;;
45114;SDS011;30877;43.706;10.780;2023-03-12T08:30:47;7.45;;;5.38;;
45114;SDS011;30877;43.706;10.780;2023-03-12T08:33:15;9.80;;;6.00;;
45114;SDS011;30877;43.706;10.780;2023-03-12T08:35:43;10.98;;;5.80;;
45114;SDS011;30877;43.706;10.780;2023-03-12T08:38:12;13.15;;;6.10;;
45114;SDS011;30877;43.706;10.780;2023-03-12T08:40:40;12.30;;;5.72;;
45114;SDS011;30877;43.706;10.780;2023-03-12T08:43:08;12.50;;;6.95;;
45114;SDS011;30877;43.706;10.780;2023-03-12T08:45:36;11.32;;;6.38;;
45114;SDS011;30877;43.706;10.780;2023-03-12T08:48:06;11.75;;;6.22;;
45114;SDS011;30877;43.706;10.780;2023-03-12T08:50:34;11.32;;;6.05;;
45114;SDS011;30877;43.706;10.780;2023-03-12T08:53:03;13.48;;;6.55;;
45114;SDS011;30877;43.706;10.780;2023-03-12T08:55:31;9.18;;;5.82;;
45114;SDS011;30877;43.706;10.780;2023-03-12T08:57:59;11.75;;;5.93;;
45114;SDS011;30877;43.706;10.780;2023-03-12T09:00:28;9.65;;;5.75;;
45114;SDS011;30877;43.706;10.780;2023-03-12T09:02:56;9.35;;;4.65;;
45114;SDS011;30877;43.706;10.780;2023-03-12T09:05:26;10.98;;;4.93;;
45114;SDS011;30877;43.706;10.780;2023-03-12T09:07:56;9.30;;;4.50;;
45114;SDS011;30877;43.706;10.780;2023-03-12T09:10:24;10.13;;;3.90;;
45114;SDS011;30877;43.706;10.780;2023-03-12T09:12:56;6.45;;;3.38;;
45114;SDS011;30877;43.706;10.780;2023-03-12T09:15:35;6.47;;;3.35;;
45114;SDS011;30877;43.706;10.780;2023-03-12T09:18:03;9.70;;;3.60;;
45114;SDS011;30877;43.706;10.780;2023-03-12T09:20:32;7.25;;;3.30;;
45114;SDS011;30877;43.706;10.780;2023-03-12T09:23:01;6.38;;;3.28;;
45114;SDS011;30877;43.706;10.780;2023-03-12T09:25:28;7.43;;;3.50;;
45114;SDS011;30877;43.706;10.780;2023-03-12T09:28:09;8.07;;;3.67;;
45114;SDS011;30877;43.706;10.780;2023-03-12T09:30:37;6.03;;;3.22;;
45114;SDS011;30877;43.706;10.780;2023-03-12T09:33:05;5.05;;;2.85;;
45114;SDS011;30877;43.706;10.780;2023-03-12T09:35:34;8.48;;;2.97;;
45114;SDS011;30877;43.706;10.780;2023-03-12T09:38:02;5.15;;;3.13;;
45114;SDS011;30877;43.706;10.780;2023-03-12T09:40:31;5.88;;;3.10;;
45114;SDS011;30877;43.706;10.780;2023-03-12T09:43:04;7.90;;;3.05;;
45114;SDS011;30877;43.706;10.780;2023-03-12T09:45:37;5.03;;;2.28;;
45114;SDS011;30877;43.706;10.780;2023-03-12T09:48:11;5.63;;;2.70;;
45114;SDS011;30877;43.706;10.780;2023-03-12T09:50:44;4.93;;;2.60;;
45114;SDS011;30877;43.706;10.780;2023-03-12T09:53:20;6.95;;;2.75;;
45114;SDS011;30877;43.706;10.780;2023-03-12T09:55:54;5.68;;;2.45;;
45114;SDS011;30877;43.706;10.780;2023-03-12T09:58:25;8.60;;;3.15;;
45114;SDS011;30877;43.706;10.780;2023-03-12T10:00:58;8.43;;;3.22;;
45114;SDS011;30877;43.706;10.780;2023-03-12T10:03:46;4.80;;;2.63;;
45114;SDS011;30877;43.706;10.780;2023-03-12T10:06:25;5.07;;;2.60;;
45114;SDS011;30877;43.706;10.780;2023-03-12T10:09:02;6.75;;;2.60;;
45114;SDS011;30877;43.706;10.780;2023-03-12T10:11:41;6.35;;;2.63;;
45114;SDS011;30877;43.706;10.780;2023-03-12T10:14:18;7.43;;;3.13;;
45114;SDS011;30877;43.706;10.780;2023-03-12T10:16:58;7.10;;;3.10;;
45114;SDS011;30877;43.706;10.780;2023-03-12T10:22:50;6.63;;;2.92;;
45114;SDS011;30877;43.706;10.780;2023-03-12T10:25:26;10.77;;;4.07;;
45114;SDS011;30877;43.706;10.780;2023-03-12T10:28:01;9.60;;;3.80;;
45114;SDS011;30877;43.706;10.780;2023-03-12T10:30:38;10.75;;;3.80;;
45114;SDS011;30877;43.706;10.780;2023-03-12T10:33:09;7.45;;;2.70;;
45114;SDS011;30877;43.706;10.780;2023-03-12T10:35:42;6.30;;;2.88;;
45114;SDS011;30877;43.706;10.780;2023-03-12T10:38:11;8.77;;;3.00;;
45114;SDS011;30877;43.706;10.780;2023-03-12T10:40:50;5.88;;;2.83;;
45114;SDS011;30877;43.706;10.780;2023-03-12T10:43:18;10.48;;;3.25;;
45114;SDS011;30877;43.706;10.780;2023-03-12T10:45:48;6.05;;;2.90;;
45114;SDS011;30877;43.706;10.780;2023-03-12T10:48:25;9.10;;;3.40;;
45114;SDS011;30877;43.706;10.780;2023-03-12T10:51:00;6.60;;;3.13;;
45114;SDS011;30877;43.706;10.780;2023-03-12T10:56:01;6.68;;;2.97;;
45114;SDS011;30877;43.706;10.780;2023-03-12T10:58:33;6.30;;;3.22;;
45114;SDS011;30877;43.706;10.780;2023-03-12T11:01:04;6.13;;;2.80;;
45114;SDS011;30877;43.706;10.780;2023-03-12T11:03:33;5.07;;;3.03;;
45114;SDS011;30877;43.706;10.780;2023-03-12T11:06:01;7.32;;;2.90;;
45114;SDS011;30877;43.706;10.780;2023-03-12T11:08:33;7.80;;;3.58;;
45114;SDS011;30877;43.706;10.780;2023-03-12T11:11:03;8.65;;;3.40;;
45114;SDS011;30877;43.706;10.780;2023-03-12T11:13:32;7.18;;;4.18;;
45114;SDS011;30877;43.706;10.780;2023-03-12T11:16:01;8.57;;;3.60;;
45114;SDS011;30877;43.706;10.780;2023-03-12T11:18:53;6.70;;;3.88;;
45114;SDS011;30877;43.706;10.780;2023-03-12T11:21:28;7.45;;;3.20;;
45114;SDS011;30877;43.706;10.780;2023-03-12T11:24:05;7.50;;;4.22;;
45114;SDS011;30877;43.706;10.780;2023-03-12T11:26:46;7.03;;;3.30;;
45114;SDS011;30877;43.706;10.780;2023-03-12T11:29:24;6.75;;;3.20;;
45114;SDS011;30877;43.706;10.780;2023-03-12T11:31:58;7.35;;;3.42;;
45114;SDS011;30877;43.706;10.780;2023-03-12T11:34:31;5.82;;;2.80;;
45114;SDS011;30877;43.706;10.780;2023-03-12T11:37:04;8.25;;;3.65;;
45114;SDS011;30877;43.706;10.780;2023-03-12T11:39:41;5.80;;;3.00;;
45114;SDS011;30877;43.706;10.780;2023-03-12T11:42:24;7.88;;;3.42;;
45114;SDS011;30877;43.706;10.780;2023-03-12T11:45:17;5.80;;;2.88;;
45114;SDS011;30877;43.706;10.780;2023-03-12T11:47:55;8.55;;;2.63;;
45114;SDS011;30877;43.706;10.780;2023-03-12T11:50:35;5.55;;;2.90;;
45114;SDS011;30877;43.706;10.780;2023-03-12T11:53:16;6.70;;;2.72;;
45114;SDS011;30877;43.706;10.780;2023-03-12T11:55:59;7.00;;;3.03;;
45114;SDS011;30877;43.706;10.780;2023-03-12T11:58:51;6.43;;;3.15;;
45114;SDS011;30877;43.706;10.780;2023-03-12T12:01:30;8.85;;;3.20;;
45114;SDS011;30877;43.706;10.780;2023-03-12T12:04:14;6.22;;;3.35;;
45114;SDS011;30877;43.706;10.780;2023-03-12T12:07:01;6.78;;;3.45;;
45114;SDS011;30877;43.706;10.780;2023-03-12T12:09:39;5.72;;;3.03;;
45114;SDS011;30877;43.706;10.780;2023-03-12T12:12:20;6.95;;;2.85;;
45114;SDS011;30877;43.706;10.780;2023-03-12T12:15:09;3.97;;;2.45;;
45114;SDS011;30877;43.706;10.780;2023-03-12T12:17:48;5.28;;;2.33;;
45114;SDS011;30877;43.706;10.780;2023-03-12T12:20:31;6.25;;;2.70;;
45114;SDS011;30877;43.706;10.780;2023-03-12T12:23:14;5.10;;;2.95;;
45114;SDS011;30877;43.706;10.780;2023-03-12T12:26:01;26.23;;;17.13;;
45114;SDS011;30877;43.706;10.780;2023-03-12T12:28:42;6.22;;;3.30;;
45114;SDS011;30877;43.706;10.780;2023-03-12T12:31:35;6.47;;;3.33;;
45114;SDS011;30877;43.706;10.780;2023-03-12T12:37:14;25.45;;;16.15;;
45114;SDS011;30877;43.706;10.780;2023-03-12T12:39:51;31.92;;;21.73;;
45114;SDS011;30877;43.706;10.780;2023-03-12T12:42:27;11.82;;;5.22;;
45114;SDS011;30877;43.706;10.780;2023-03-12T12:45:01;9.20;;;4.20;;
45114;SDS011;30877;43.706;10.780;2023-03-12T12:47:38;6.07;;;3.58;;
45114;SDS011;30877;43.706;10.780;2023-03-12T12:50:12;7.07;;;3.47;;
45114;SDS011;30877;43.706;10.780;2023-03-12T12:52:45;6.95;;;3.17;;
45114;SDS011;30877;43.706;10.780;2023-03-12T12:55:18;8.35;;;2.90;;
45114;SDS011;30877;43.706;10.780;2023-03-12T12:57:53;5.40;;;2.60;;
45114;SDS011;30877;43.706;10.780;2023-03-12T13:00:32;6.93;;;2.60;;
45114;SDS011;30877;43.706;10.780;2023-03-12T13:03:05;6.57;;;2.75;;
45114;SDS011;30877;43.706;10.780;2023-03-12T13:05:43;3.95;;;2.38;;
45114;SDS011;30877;43.706;10.780;2023-03-12T13:11:29;9.23;;;2.95;;
45114;SDS011;30877;43.706;10.780;2023-03-12T13:17:07;6.32;;;2.90;;
45114;SDS011;30877;43.706;10.780;2023-03-12T13:20:10;6.05;;;2.67;;
45114;SDS011;30877;43.706;10.780;2023-03-12T13:22:54;5.35;;;3.08;;
45114;SDS011;30877;43.706;10.780;2023-03-12T13:25:39;4.85;;;2.33;;
45114;SDS011;30877;43.706;10.780;2023-03-12T13:28:29;7.38;;;2.95;;
45114;SDS011;30877;43.706;10.780;2023-03-12T13:31:09;7.18;;;2.40;;
45114;SDS011;30877;43.706;10.780;2023-03-12T13:34:28;5.45;;;2.60;;
45114;SDS011;30877;43.706;10.780;2023-03-12T13:37:18;6.65;;;3.10;;
45114;SDS011;30877;43.706;10.780;2023-03-12T13:40:31;6.10;;;2.78;;
45114;SDS011;30877;43.706;10.780;2023-03-12T13:43:07;6.18;;;2.90;;
45114;SDS011;30877;43.706;10.780;2023-03-12T13:45:53;3.20;;;2.10;;
45114;SDS011;30877;43.706;10.780;2023-03-12T13:48:25;6.60;;;3.25;;
45114;SDS011;30877;43.706;10.780;2023-03-12T13:50:56;5.40;;;2.72;;
45114;SDS011;30877;43.706;10.780;2023-03-12T13:53:31;5.70;;;2.67;;
45114;SDS011;30877;43.706;10.780;2023-03-12T13:56:03;8.10;;;4.70;;
45114;SDS011;30877;43.706;10.780;2023-03-12T13:58:38;4.63;;;2.60;;
45114;SDS011;30877;43.706;10.780;2023-03-12T14:01:12;5.85;;;2.72;;
45114;SDS011;30877;43.706;10.780;2023-03-12T14:03:44;6.43;;;3.45;;
45114;SDS011;30877;43.706;10.780;2023-03-12T14:06:18;5.65;;;2.80;;
45114;SDS011;30877;43.706;10.780;2023-03-12T14:08:51;7.65;;;3.42;;
45114;SDS011;30877;43.706;10.780;2023-03-12T14:11:30;7.68;;;2.97;;
45114;SDS011;30877;43.706;10.780;2023-03-12T14:17:26;8.15;;;3.35;;
45114;SDS011;30877;43.706;10.780;2023-03-12T14:19:59;6.72;;;3.33;;
45114;SDS011;30877;43.706;10.780;2023-03-12T14:22:30;6.95;;;3.20;;
45114;SDS011;30877;43.706;10.780;2023-03-12T14:25:00;7.38;;;3.42;;
45114;SDS011;30877;43.706;10.780;2023-03-12T14:27:32;5.10;;;2.83;;
45114;SDS011;30877;43.706;10.780;2023-03-12T14:30:05;5.40;;;2.75;;
45114;SDS011;30877;43.706;10.780;2023-03-12T14:32:38;7.43;;;2.95;;
45114;SDS011;30877;43.706;10.780;2023-03-12T14:35:12;6.22;;;3.00;;
45114;SDS011;30877;43.706;10.780;2023-03-12T14:40:21;8.10;;;2.70;;
45114;SDS011;30877;43.706;10.780;2023-03-12T14:42:52;6.32;;;3.17;;
45114;SDS011;30877;43.706;10.780;2023-03-12T14:45:21;7.68;;;3.60;;
45114;SDS011;30877;43.706;10.780;2023-03-12T14:47:51;10.07;;;3.15;;
45114;SDS011;30877;43.706;10.780;2023-03-12T14:50:22;6.22;;;3.20;;
45114;SDS011;30877;43.706;10.780;2023-03-12T14:52:53;7.53;;;2.85;;
45114;SDS011;30877;43.706;10.780;2023-03-12T14:55:22;7.70;;;3.28;;
45114;SDS011;30877;43.706;10.780;2023-03-12T14:58:06;7.25;;;3.33;;
45114;SDS011;30877;43.706;10.780;2023-03-12T15:00:44;10.02;;;3.70;;
45114;SDS011;30877;43.706;10.780;2023-03-12T15:03:23;7.80;;;2.78;;
45114;SDS011;30877;43.706;10.780;2023-03-12T15:05:53;8.35;;;3.75;;
45114;SDS011;30877;43.706;10.780;2023-03-12T15:08:23;5.85;;;2.97;;
45114;SDS011;30877;43.706;10.780;2023-03-12T15:10:53;10.75;;;3.40;;
45114;SDS011;30877;43.706;10.780;2023-03-12T15:13:23;6.85;;;3.15;;
45114;SDS011;30877;43.706;10.780;2023-03-12T15:15:52;10.15;;;3.88;;
45114;SDS011;30877;43.706;10.780;2023-03-12T15:18:22;6.57;;;3.33;;
45114;SDS011;30877;43.706;10.780;2023-03-12T15:20:52;5.95;;;2.95;;